Time;durP1;ratioP1;P1;durP2;ratioP2;P2;SDS_P1;SDS_P2;PMS_P1;PMS_P2;Temp;Humidity;BMP_temperature;BMP_pressure;BME280_temperature;BME280_humidity;BME280_pressure;Samples;Min_cycle;Max_cycle;Signal;HPM_P1;HPM_P2
2021/09/19 00:02:00;;;;;;;4.80;3.42;;;;;;;11.93;95.72;101033.59;2616533;36;20030;-50
2021/09/19 00:04:29;;;;;;;4.32;2.67;;;;;;;11.93;95.64;101046.44;2616686;36;20481;-48
2021/09/19 00:06:56;;;;;;;4.85;2.90;;;;;;;11.94;95.65;101037.88;2615893;36;20038;-49
2021/09/19 00:09:23;;;;;;;3.28;2.92;;;;;;;11.91;95.15;101036.09;2616887;31;20045;-51
2021/09/19 00:11:51;;;;;;;3.22;2.92;;;;;;;11.92;96.65;101039.53;2616479;36;20042;-48
2021/09/19 00:14:18;;;;;;;6.10;3.63;;;;;;;11.90;96.13;101036.94;2616816;31;20058;-47
2021/09/19 00:16:45;;;;;;;3.78;3.00;;;;;;;11.92;98.17;101029.25;2616075;36;20023;-48
2021/09/19 00:19:12;;;;;;;6.10;3.53;;;;;;;11.90;100.00;101028.38;2616330;36;20126;-49
2021/09/19 00:21:39;;;;;;;10.27;3.65;;;;;;;11.89;99.15;101029.22;2616327;31;20562;-49
2021/09/19 00:24:07;;;;;;;5.20;3.40;;;;;;;11.90;100.00;101023.22;2616208;36;20054;-49
2021/09/19 00:26:34;;;;;;;4.80;3.47;;;;;;;11.88;100.00;101025.78;2616174;36;20031;-48
2021/09/19 00:29:02;;;;;;;6.85;3.65;;;;;;;11.89;100.00;101029.22;2616110;31;20036;-50
2021/09/19 00:31:30;;;;;;;4.85;3.50;;;;;;;11.88;100.00;101025.78;2616714;31;20029;-48
2021/09/19 00:33:57;;;;;;;4.25;3.63;;;;;;;11.87;100.00;101028.28;2616476;31;20123;-53
2021/09/19 00:36:24;;;;;;;6.65;3.92;;;;;;;11.88;100.00;101025.78;2616972;31;20037;-53
2021/09/19 00:38:51;;;;;;;5.75;3.83;;;;;;;11.87;100.00;101023.16;2616363;31;20034;-50
2021/09/19 00:41:18;;;;;;;4.25;3.60;;;;;;;11.83;100.00;101014.53;2616286;36;20041;-50
2021/09/19 00:43:46;;;;;;;5.72;4.10;;;;;;;11.82;100.00;101014.44;2617360;31;20037;-48
2021/09/19 00:46:13;;;;;;;4.10;3.53;;;;;;;11.81;100.00;101013.56;2616335;31;20041;-49
2021/09/19 00:48:41;;;;;;;6.72;3.75;;;;;;;11.81;100.00;101012.69;2616315;31;20030;-49
2021/09/19 00:51:08;;;;;;;5.35;3.80;;;;;;;11.81;100.00;101007.56;2616816;31;20042;-49
2021/09/19 00:53:41;;;;;;;6.75;4.28;;;;;;;11.82;100.00;101007.63;2616218;36;20083;-48
2021/09/19 00:56:09;;;;;;;9.75;4.40;;;;;;;11.81;100.00;101011.00;2616054;36;20546;-50
2021/09/19 00:58:40;;;;;;;5.95;4.15;;;;;;;11.83;100.00;101011.06;2616158;36;20042;-49
2021/09/19 01:01:07;;;;;;;6.93;4.47;;;;;;;11.84;100.00;101012.81;2616071;36;20026;-47
2021/09/19 01:03:35;;;;;;;8.73;4.40;;;;;;;11.83;100.00;101016.19;2615970;36;20170;-51
2021/09/19 01:06:03;;;;;;;4.65;3.90;;;;;;;11.85;100.00;101014.56;2615914;36;20665;-47
2021/09/19 01:08:31;;;;;;;5.40;4.13;;;;;;;11.82;100.00;101014.44;2616252;36;20038;-48
2021/09/19 01:10:58;;;;;;;4.55;4.15;;;;;;;11.81;100.00;101022.97;2616005;36;20027;-48
2021/09/19 01:13:27;;;;;;;4.93;4.03;;;;;;;11.81;100.00;101013.56;2616462;36;20038;-52
2021/09/19 01:15:54;;;;;;;6.75;4.32;;;;;;;11.78;100.00;101018.59;2616104;36;20585;-49
2021/09/19 01:18:23;;;;;;;8.48;4.40;;;;;;;11.76;100.00;101007.44;2615932;36;20652;-47
2021/09/19 01:20:51;;;;;;;6.38;4.10;;;;;;;11.76;100.00;101009.16;2616534;31;20027;-49
2021/09/19 01:23:18;;;;;;;9.02;4.72;;;;;;;11.75;100.00;101012.56;2616701;31;20057;-49
2021/09/19 01:25:49;;;;;;;6.03;4.18;;;;;;;11.73;100.00;101007.34;2615630;36;20031;-47
2021/09/19 01:28:16;;;;;;;6.35;4.53;;;;;;;11.72;100.00;101009.06;2616726;31;20034;-45
2021/09/19 01:30:43;;;;;;;5.80;4.32;;;;;;;11.69;100.00;101010.66;2616548;31;20030;-48
2021/09/19 01:33:10;;;;;;;8.20;4.63;;;;;;;11.67;100.00;101002.94;2616375;31;20038;-45
2021/09/19 01:35:38;;;;;;;5.60;4.32;;;;;;;11.67;100.00;101008.06;2615955;36;20034;-50
2021/09/19 01:38:05;;;;;;;7.68;4.10;;;;;;;11.65;100.00;101003.75;2616547;31;20038;-49
2021/09/19 01:40:33;;;;;;;5.72;4.22;;;;;;;11.66;100.00;101005.47;2616247;36;20616;-50
2021/09/19 01:43:05;;;;;;;7.47;4.15;;;;;;;11.62;100.00;101001.09;2617893;31;20031;-47
2021/09/19 01:45:35;;;;;;;9.27;3.90;;;;;;;11.59;100.00;100998.44;2580463;36;2004536;-50
2021/09/19 01:48:03;;;;;;;5.40;4.10;;;;;;;11.60;100.00;100995.94;2617286;31;20045;-45
2021/09/19 01:50:30;;;;;;;5.25;3.95;;;;;;;11.60;100.00;101000.16;2617213;36;20058;-45
2021/09/19 01:53:02;;;;;;;5.22;4.57;;;;;;;11.58;100.00;101000.13;2617251;36;20442;-47
2021/09/19 01:55:29;;;;;;;5.90;4.05;;;;;;;11.57;100.00;100994.97;2617548;31;20636;-47
2021/09/19 01:57:57;;;;;;;5.47;3.90;;;;;;;11.58;100.00;100982.19;2616793;36;20030;-48
2021/09/19 02:00:26;;;;;;;4.75;3.90;;;;;;;11.57;100.00;100988.16;2616907;31;20038;-47
2021/09/19 02:02:53;;;;;;;4.93;4.40;;;;;;;11.54;100.00;100984.63;2616855;36;20029;-46
2021/09/19 02:05:21;;;;;;;5.38;4.25;;;;;;;11.54;100.00;100982.06;2616917;31;20019;-49
2021/09/19 02:07:48;;;;;;;6.40;3.88;;;;;;;11.53;100.00;100977.78;2616391;36;20057;-50
2021/09/19 02:10:18;;;;;;;6.75;4.03;;;;;;;11.52;100.00;100983.72;2616498;36;20041;-49
2021/09/19 02:12:45;;;;;;;5.57;3.80;;;;;;;11.49;100.00;100979.38;2616638;36;20074;-50
2021/09/19 02:15:15;;;;;;;6.72;4.50;;;;;;;11.50;100.00;100987.94;2616495;36;20091;-52
2021/09/19 02:17:43;;;;;;;6.47;4.10;;;;;;;11.49;100.00;100984.50;2617034;31;20033;-55
2021/09/19 02:20:14;;;;;;;6.35;4.22;;;;;;;11.47;100.00;100983.59;2618046;31;20034;-52
2021/09/19 02:22:42;;;;;;;6.65;4.35;;;;;;;11.47;100.00;100973.34;2617382;31;20030;-49
2021/09/19 02:25:10;;;;;;;6.47;4.20;;;;;;;11.47;100.00;100968.22;2616884;31;20657;-49
2021/09/19 02:27:37;;;;;;;6.30;4.43;;;;;;;11.44;100.00;100971.56;2616760;36;20038;-47
2021/09/19 02:30:08;;;;;;;8.32;4.63;;;;;;;11.44;100.00;100973.25;2616489;36;20030;-49
2021/09/19 02:32:36;;;;;;;7.40;4.07;;;;;;;11.41;100.00;100968.91;2617603;31;20058;-48
2021/09/19 02:35:05;;;;;;;5.85;4.20;;;;;;;11.41;100.00;100970.59;2618146;31;20034;-49
2021/09/19 02:37:32;;;;;;;5.97;4.18;;;;;;;11.38;100.00;100963.72;2617329;31;20018;-51
2021/09/19 02:40:00;;;;;;;11.35;4.50;;;;;;;11.38;100.00;100966.28;2617081;31;20070;-48
2021/09/19 02:42:27;;;;;;;6.85;4.13;;;;;;;11.38;100.00;100970.53;2616960;31;20036;-52
2021/09/19 02:44:54;;;;;;;6.40;4.63;;;;;;;11.36;100.00;100967.06;2616987;31;20590;-48
2021/09/19 02:47:21;;;;;;;7.57;4.30;;;;;;;11.34;100.00;100974.72;2616407;36;20486;-48
2021/09/19 02:49:48;;;;;;;4.15;3.75;;;;;;;11.35;100.00;100980.72;2615791;36;20033;-54
2021/09/19 02:52:15;;;;;;;6.60;4.07;;;;;;;11.33;100.00;100961.88;2616351;36;20034;-47
2021/09/19 02:54:42;;;;;;;6.55;4.30;;;;;;;11.35;100.00;100965.31;2616255;36;20033;-47
2021/09/19 02:57:09;;;;;;;6.03;3.88;;;;;;;11.33;100.00;100969.56;2616580;36;20163;-51
2021/09/19 02:59:36;;;;;;;9.13;3.88;;;;;;;11.31;100.00;100968.63;2616671;36;20030;-49
2021/09/19 03:02:06;;;;;;;7.65;4.60;;;;;;;11.32;100.00;100966.09;2616561;36;20038;-51
2021/09/19 03:04:34;;;;;;;8.60;4.50;;;;;;;11.34;100.00;100973.84;2616609;36;20554;-49
2021/09/19 03:07:01;;;;;;;7.07;4.88;;;;;;;11.35;100.00;100966.19;2617028;31;20460;-50
2021/09/19 03:09:28;;;;;;;7.03;4.45;;;;;;;11.32;100.00;100966.09;2616647;36;20031;-47
2021/09/19 03:11:55;;;;;;;7.28;4.68;;;;;;;11.33;100.00;100967.84;2616891;31;20453;-49
2021/09/19 03:14:22;;;;;;;5.15;4.13;;;;;;;11.32;100.00;100970.34;2616872;31;20034;-47
2021/09/19 03:16:49;;;;;;;8.25;4.53;;;;;;;11.30;100.00;100966.91;2616200;36;20030;-49
2021/09/19 03:19:16;;;;;;;8.77;4.57;;;;;;;11.31;100.00;100971.19;2616368;36;20034;-47
2021/09/19 03:21:43;;;;;;;7.60;4.70;;;;;;;11.32;100.00;100972.91;2616533;36;20030;-50
2021/09/19 03:24:10;;;;;;;5.72;4.32;;;;;;;11.30;100.00;100966.91;2617134;31;20038;-48
2021/09/19 03:26:37;;;;;;;8.25;4.90;;;;;;;11.29;100.00;100972.84;2617967;31;20443;-49
2021/09/19 03:29:05;;;;;;;5.80;4.28;;;;;;;11.29;100.00;100976.28;2616377;36;20054;-50
2021/09/19 03:31:32;;;;;;;8.75;5.32;;;;;;;11.30;100.00;100975.47;2616682;36;20042;-48
2021/09/19 03:33:59;;;;;;;7.05;4.20;;;;;;;11.29;100.00;100976.28;2617853;31;20026;-48
2021/09/19 03:36:26;;;;;;;8.18;5.05;;;;;;;11.30;100.00;100974.59;2616293;36;20034;-51
2021/09/19 03:38:53;;;;;;;7.50;4.70;;;;;;;11.29;100.00;100980.56;2616876;31;20077;-53
2021/09/19 03:41:20;;;;;;;8.68;4.70;;;;;;;11.28;100.00;100974.56;2616361;36;20035;-54
2021/09/19 03:43:48;;;;;;;5.78;4.78;;;;;;;11.30;100.00;100982.28;2616328;36;20026;-52
2021/09/19 03:46:15;;;;;;;5.95;4.13;;;;;;;11.26;100.00;100981.31;2616405;36;20034;-52
2021/09/19 03:48:42;;;;;;;6.70;4.57;;;;;;;11.26;100.00;100978.75;2616430;31;20604;-48
2021/09/19 03:51:09;;;;;;;6.65;4.35;;;;;;;11.25;100.00;100984.72;2617648;31;20316;-50
2021/09/19 03:53:36;;;;;;;6.38;4.68;;;;;;;11.26;100.00;100991.56;2616462;31;20030;-48
2021/09/19 03:56:03;;;;;;;8.43;5.28;;;;;;;11.26;100.00;100994.13;2616278;36;20377;-47
2021/09/19 03:58:30;;;;;;;6.72;4.45;;;;;;;11.24;100.00;100983.00;2616302;36;20027;-48
2021/09/19 04:00:58;;;;;;;7.43;5.00;;;;;;;11.25;100.00;100992.41;2616475;36;20074;-49
2021/09/19 04:03:25;;;;;;;6.78;4.63;;;;;;;11.25;100.00;100986.41;2616242;36;20034;-51
2021/09/19 04:05:52;;;;;;;6.55;4.25;;;;;;;11.26;100.00;100978.75;2616364;36;20531;-49
2021/09/19 04:08:19;;;;;;;6.72;4.70;;;;;;;11.24;100.00;100982.13;2617186;36;20419;-53
2021/09/19 04:10:47;;;;;;;8.48;4.80;;;;;;;11.20;100.00;100986.28;2616299;36;20034;-52
2021/09/19 04:13:14;;;;;;;8.65;4.57;;;;;;;11.20;100.00;100983.72;2615969;36;20393;-51
2021/09/19 04:15:41;;;;;;;6.88;4.75;;;;;;;11.20;100.00;100984.59;2616582;31;20023;-48
2021/09/19 04:18:08;;;;;;;10.23;4.70;;;;;;;11.21;100.00;100996.56;2616046;36;20026;-47
2021/09/19 04:20:35;;;;;;;8.52;4.57;;;;;;;11.20;100.00;100996.53;2616789;31;20379;-49
2021/09/19 04:23:02;;;;;;;5.90;4.25;;;;;;;11.20;100.00;100996.53;2616498;31;20035;-49
2021/09/19 04:25:30;;;;;;;7.15;4.60;;;;;;;11.18;100.00;100998.19;2615993;31;20113;-46
2021/09/19 04:27:57;;;;;;;6.15;4.35;;;;;;;11.16;100.00;100987.03;2615981;36;20054;-47
2021/09/19 04:30:24;;;;;;;4.93;4.15;;;;;;;11.15;100.00;100986.16;2616099;36;20038;-49
2021/09/19 04:32:52;;;;;;;7.85;4.75;;;;;;;11.15;100.00;101000.66;2616909;31;20053;-50
2021/09/19 04:35:19;;;;;;;9.30;5.15;;;;;;;11.12;100.00;100995.44;2616273;36;20606;-49
2021/09/19 04:37:46;;;;;;;7.85;4.18;;;;;;;11.08;100.00;100996.19;2616119;36;20038;-51
2021/09/19 04:40:14;;;;;;;7.18;4.95;;;;;;;11.07;100.00;100991.88;2615973;36;20057;-50
2021/09/19 04:42:41;;;;;;;8.50;4.90;;;;;;;11.06;100.00;101001.28;2616503;31;20045;-50
2021/09/19 04:45:09;;;;;;;7.93;5.28;;;;;;;11.03;100.00;101001.19;2616226;36;20046;-48
2021/09/19 04:47:36;;;;;;;6.63;4.80;;;;;;;11.04;100.00;101002.91;2616067;31;20053;-51
2021/09/19 04:50:06;;;;;;;8.57;4.80;;;;;;;11.04;100.00;101004.59;2616287;36;20034;-52
2021/09/19 04:52:33;;;;;;;7.07;4.85;;;;;;;11.03;100.00;101003.75;2616112;36;20030;-51
2021/09/19 04:55:00;;;;;;;6.53;4.40;;;;;;;10.98;100.00;101000.19;2617154;36;20447;-51
2021/09/19 04:57:27;;;;;;;6.85;5.05;;;;;;;11.00;100.00;101000.22;2616878;31;20037;-52
2021/09/19 04:59:54;;;;;;;7.10;4.57;;;;;;;10.98;100.00;101000.19;2616320;36;20030;-51
2021/09/19 05:02:22;;;;;;;6.97;4.25;;;;;;;10.98;100.00;100997.63;2615962;31;20026;-51
2021/09/19 05:04:49;;;;;;;9.88;4.47;;;;;;;10.95;100.00;101002.66;2616788;31;20022;-49
2021/09/19 05:07:16;;;;;;;9.90;4.85;;;;;;;10.99;100.00;101006.16;2616096;36;20033;-49
2021/09/19 05:09:43;;;;;;;7.40;4.63;;;;;;;10.98;100.00;101005.31;2616669;31;20019;-53
2021/09/19 05:12:10;;;;;;;8.77;4.80;;;;;;;11.00;100.00;101005.34;2616640;31;20038;-49
2021/09/19 05:14:37;;;;;;;8.32;5.47;;;;;;;10.98;100.00;101001.88;2616131;36;20030;-51
2021/09/19 05:17:04;;;;;;;11.43;5.00;;;;;;;10.98;100.00;101004.44;2615540;31;20033;-51
2021/09/19 05:19:32;;;;;;;6.10;4.95;;;;;;;11.00;100.00;101002.78;2616105;36;20038;-50
2021/09/19 05:21:59;;;;;;;9.20;5.18;;;;;;;11.00;100.00;101010.47;2616072;31;20573;-48
2021/09/19 05:24:26;;;;;;;9.18;5.40;;;;;;;11.00;100.00;101003.69;2615801;36;20030;-52
2021/09/19 05:26:53;;;;;;;8.25;5.10;;;;;;;11.05;100.00;101014.06;2615327;36;20042;-44
2021/09/19 05:29:20;;;;;;;8.85;5.15;;;;;;;11.06;100.00;101002.97;2615319;36;20038;-44
2021/09/19 05:31:47;;;;;;;7.15;5.20;;;;;;;11.08;100.00;101006.44;2615019;36;20035;-45
2021/09/19 05:34:14;;;;;;;11.15;5.20;;;;;;;11.08;100.00;101004.75;2616135;31;20034;-44
2021/09/19 05:36:41;;;;;;;10.25;5.30;;;;;;;11.14;100.00;101001.50;2615583;36;20057;-44
2021/09/19 05:39:08;;;;;;;9.23;4.88;;;;;;;11.14;100.00;100999.81;2615854;31;20550;-44
2021/09/19 05:41:36;;;;;;;8.20;4.85;;;;;;;11.16;100.00;101000.69;2615193;36;20042;-47
2021/09/19 05:44:03;;;;;;;8.45;5.30;;;;;;;11.19;100.00;101000.81;2616013;31;20034;-44
2021/09/19 05:46:30;;;;;;;9.27;5.63;;;;;;;11.21;100.00;101006.81;2615141;36;20035;-44
2021/09/19 05:48:59;;;;;;;7.80;4.85;;;;;;;11.24;100.00;100998.38;2615705;31;20030;-45
2021/09/19 05:51:27;;;;;;;9.55;5.35;;;;;;;11.26;100.00;101009.53;2615753;31;20027;-47
2021/09/19 05:53:54;;;;;;;7.22;5.10;;;;;;;11.29;100.00;101008.75;2615506;31;20026;-44
2021/09/19 05:56:21;;;;;;;7.78;5.10;;;;;;;11.32;100.00;101004.56;2614891;36;20030;-44
2021/09/19 05:58:48;;;;;;;8.45;4.38;;;;;;;11.29;100.00;100998.50;2615810;31;20153;-45
2021/09/19 06:01:15;;;;;;;15.27;5.65;;;;;;;11.29;100.00;101007.06;2615050;36;20034;-47
2021/09/19 06:03:43;;;;;;;6.53;4.95;;;;;;;11.38;100.00;101001.31;2615665;36;20942;-45
2021/09/19 06:06:10;;;;;;;7.22;5.22;;;;;;;11.39;100.00;101003.03;2621029;31;20439;-50
2021/09/19 06:08:37;;;;;;;9.15;5.47;;;;;;;11.41;100.00;101004.81;2620332;36;20042;-50
2021/09/19 06:11:04;;;;;;;6.18;5.10;;;;;;;11.45;100.00;101001.50;2616613;31;20034;-44
2021/09/19 06:13:32;;;;;;;7.00;4.93;;;;;;;11.47;100.00;101005.00;2615991;31;20022;-44
2021/09/19 06:15:59;;;;;;;6.65;5.03;;;;;;;11.46;100.00;101000.69;2614932;36;20570;-45
2021/09/19 06:18:28;;;;;;;11.60;5.80;;;;;;;11.55;100.00;101007.75;2615238;31;20405;-45
2021/09/19 06:21:01;;;;;;;8.05;5.18;;;;;;;11.54;100.00;101003.44;2615592;31;20037;-45
2021/09/19 06:23:30;;;;;;;8.65;5.30;;;;;;;11.67;100.00;101009.78;2614927;36;20037;-45
2021/09/19 06:25:58;;;;;;;9.80;5.72;;;;;;;11.69;100.00;101009.00;2615967;31;20446;-45
2021/09/19 06:28:25;;;;;;;10.95;5.88;;;;;;;11.75;100.00;101007.44;2616690;31;20038;-45
2021/09/19 06:30:52;;;;;;;11.43;5.50;;;;;;;11.83;100.00;101003.38;2615607;36;20061;-45
2021/09/19 06:33:19;;;;;;;8.20;5.50;;;;;;;11.85;100.00;101018.00;2616705;31;20030;-45
2021/09/19 06:35:47;;;;;;;7.80;5.03;;;;;;;11.90;100.00;101020.66;2615939;36;20037;-46
2021/09/19 06:38:17;;;;;;;7.78;5.05;;;;;;;11.95;100.00;101025.09;2615944;31;20117;-44
2021/09/19 06:40:44;;;;;;;7.45;5.50;;;;;;;12.02;100.00;101022.66;2614945;36;20022;-43
2021/09/19 06:43:12;;;;;;;8.13;4.95;;;;;;;12.04;100.00;101018.44;2614898;36;20038;-47
2021/09/19 06:45:39;;;;;;;6.30;4.72;;;;;;;12.12;100.00;101011.81;2615640;36;20550;-45
2021/09/19 06:48:06;;;;;;;12.40;6.15;;;;;;;12.07;100.00;101016.84;2615754;36;20051;-44
2021/09/19 06:50:34;;;;;;;7.40;4.60;;;;;;;12.07;100.00;101014.28;2621787;36;20285;-46
2021/09/19 06:53:03;;;;;;;7.85;4.65;;;;;;;12.14;100.00;101013.56;2617311;31;20082;-46
2021/09/19 06:55:33;;;;;;;12.32;4.40;;;;;;;12.21;100.00;101012.03;2615184;31;20038;-43
2021/09/19 06:58:05;;;;;;;6.20;4.38;;;;;;;12.03;100.00;101011.59;2579238;31;2004485;-43
2021/09/19 07:00:32;;;;;;;7.50;4.65;;;;;;;12.09;100.00;101009.16;2615842;36;20034;-47
2021/09/19 07:02:59;;;;;;;7.07;5.05;;;;;;;12.25;100.00;101006.16;2615873;36;20577;-43
2021/09/19 07:05:27;;;;;;;7.47;4.55;;;;;;;12.36;100.00;101009.81;2615987;36;20030;-51
2021/09/19 07:07:54;;;;;;;7.82;4.35;;;;;;;12.43;100.00;101019.44;2615646;31;20045;-43
2021/09/19 07:10:22;;;;;;;5.82;4.40;;;;;;;12.41;100.00;101022.78;2615567;31;20030;-45
2021/09/19 07:12:49;;;;;;;9.02;4.40;;;;;;;12.45;100.00;101022.88;2615897;31;20034;-45
2021/09/19 07:15:20;;;;;;;5.90;4.70;;;;;;;12.36;100.00;101014.09;2615711;36;20038;-44
2021/09/19 07:17:49;;;;;;;6.80;4.70;;;;;;;12.45;100.00;101020.31;2615580;31;20037;-45
2021/09/19 07:20:16;;;;;;;7.30;4.65;;;;;;;12.33;100.00;101024.28;2615980;31;20038;-45
2021/09/19 11:28:22;;;;;;;2.53;2.33;;;;;;;18.30;49.32;101024.50;2613136;36;20018;-44
2021/09/19 11:30:57;;;;;;;3.90;2.70;;;;;;;18.24;49.00;101033.16;2616087;31;20061;-51
2021/09/19 11:33:24;;;;;;;3.17;2.53;;;;;;;18.01;49.59;101037.47;2616393;31;20061;-44
2021/09/19 11:35:52;;;;;;;4.07;2.42;;;;;;;18.13;48.25;101024.53;2615020;36;20035;-43
2021/09/19 11:38:20;;;;;;;2.97;2.63;;;;;;;18.69;49.04;101023.63;2615063;36;20034;-46
2021/09/19 11:40:57;;;;;;;2.88;2.60;;;;;;;18.63;50.71;101025.38;2614872;36;20058;-43
2021/09/19 11:43:25;;;;;;;4.22;2.97;;;;;;;18.08;50.88;101031.47;2615488;36;20038;-45
2021/09/19 11:45:52;;;;;;;5.03;2.63;;;;;;;18.57;51.37;101018.44;2615238;36;20061;-45
2021/09/19 11:48:19;;;;;;;3.28;2.55;;;;;;;19.00;47.67;101029.59;2616372;31;20030;-46
2021/09/19 11:50:50;;;;;;;2.92;2.63;;;;;;;18.49;47.60;101023.66;2616032;31;20035;-45
2021/09/19 11:53:17;;;;;;;2.92;2.63;;;;;;;18.00;51.76;101031.44;2616129;31;20031;-44
2021/09/19 11:55:46;;;;;;;3.65;2.80;;;;;;;17.38;50.69;101027.00;2615330;31;20037;-45
2021/09/19 11:58:22;;;;;;;3.42;2.75;;;;;;;17.16;50.66;101022.59;2615305;31;20038;-45
2021/09/19 12:00:56;;;;;;;3.05;2.30;;;;;;;16.80;53.87;101029.31;2615308;31;20041;-44
2021/09/19 12:03:25;;;;;;;4.82;2.75;;;;;;;16.55;53.62;101021.38;2615648;31;20593;-44
2021/09/19 12:05:55;;;;;;;3.25;2.50;;;;;;;16.33;54.12;101023.81;2614892;36;20054;-44
2021/09/19 12:08:25;;;;;;;3.53;2.63;;;;;;;16.59;57.18;101027.41;2613688;36;20030;-47
2021/09/19 12:10:53;;;;;;;3.00;2.70;;;;;;;16.67;56.47;101027.47;2613775;36;20057;-44
2021/09/19 12:13:28;;;;;;;3.50;2.75;;;;;;;16.36;58.52;101019.53;2614289;36;20415;-48
2021/09/19 12:16:19;;;;;;;2.83;2.47;;;;;;;16.54;57.24;101019.63;2613795;36;20038;-45
2021/09/19 12:18:49;;;;;;;3.45;2.78;;;;;;;16.81;55.19;101023.28;2579331;31;2004575;-44
2021/09/19 12:21:21;;;;;;;4.15;2.95;;;;;;;16.18;56.02;101014.22;2615804;36;20592;-45
2021/09/19 12:23:57;;;;;;;3.28;2.70;;;;;;;16.53;57.20;101027.38;2616358;36;20065;-46
2021/09/19 12:26:26;;;;;;;3.60;2.72;;;;;;;16.60;57.48;101013.66;2615535;31;20030;-44
2021/09/19 12:29:03;;;;;;;3.97;2.63;;;;;;;16.18;58.33;101009.06;2615868;31;20035;-46
2021/09/19 12:31:41;;;;;;;2.85;2.55;;;;;;;16.15;58.34;101014.19;2615892;31;20045;-46
2021/09/19 12:34:14;;;;;;;3.67;2.95;;;;;;;16.18;59.24;101014.22;2616385;31;20042;-47
2021/09/19 12:36:44;;;;;;;4.00;3.17;;;;;;;16.17;58.60;101013.31;2579138;31;2004548;-46
2021/09/19 12:39:28;;;;;;;3.88;2.70;;;;;;;16.34;60.62;101012.59;2614156;36;20039;-48
2021/09/19 12:42:02;;;;;;;4.47;3.42;;;;;;;16.76;61.04;101012.91;2615227;31;20057;-45
2021/09/19 12:44:34;;;;;;;3.88;3.40;;;;;;;17.12;58.83;101008.75;2615175;31;20633;-46
2021/09/19 12:47:06;;;;;;;3.72;3.00;;;;;;;17.07;56.42;101012.19;2614952;31;20054;-44
2021/09/19 12:49:44;;;;;;;10.70;2.92;;;;;;;17.19;55.06;101017.41;2614553;31;20038;-45
2021/09/19 12:52:14;;;;;;;3.05;2.80;;;;;;;17.38;53.86;101014.03;2577762;31;2004363;-44
2021/09/19 12:54:53;;;;;;;4.13;2.80;;;;;;;16.99;53.11;101017.31;2614855;36;20041;-48
2021/09/19 12:57:23;;;;;;;6.00;3.03;;;;;;;16.83;54.07;101015.53;2615348;36;20450;-46
2021/09/19 12:59:51;;;;;;;3.65;2.63;;;;;;;16.97;55.57;101014.75;2615311;31;20034;-46
2021/09/19 13:02:19;;;;;;;5.50;2.47;;;;;;;16.93;54.03;101012.13;2615163;36;20035;-47
2021/09/19 13:04:47;;;;;;;4.43;2.35;;;;;;;17.24;54.16;101007.94;2615418;36;20034;-47
2021/09/19 13:07:14;;;;;;;5.68;2.63;;;;;;;17.11;54.28;101011.34;2615858;31;20035;-47
2021/09/19 13:09:42;;;;;;;3.00;2.17;;;;;;;16.93;55.28;101007.81;2614970;36;20613;-44
2021/09/19 13:12:11;;;;;;;3.78;2.33;;;;;;;17.36;55.37;101000.22;2615283;31;20038;-49
2021/09/19 13:14:39;;;;;;;4.20;2.50;;;;;;;16.72;55.34;101002.53;2615389;36;20049;-45
2021/09/19 13:17:06;;;;;;;3.55;2.13;;;;;;;16.82;55.45;100993.09;2615227;31;20458;-45
2021/09/19 13:19:34;;;;;;;4.85;2.67;;;;;;;16.68;54.98;100991.25;2614981;36;20039;-46
2021/09/19 13:22:03;;;;;;;4.65;2.88;;;;;;;16.83;56.43;100995.72;2614837;36;20035;-48
2021/09/19 13:24:31;;;;;;;4.43;3.60;;;;;;;16.71;56.22;100996.47;2614711;36;20038;-47
2021/09/19 13:27:00;;;;;;;5.15;3.00;;;;;;;16.96;56.95;100992.31;2615620;31;20038;-49
2021/09/19 13:29:30;;;;;;;5.55;3.15;;;;;;;17.08;55.44;100998.41;2615272;31;20038;-45
2021/09/19 13:31:59;;;;;;;3.58;2.75;;;;;;;16.85;58.20;100987.94;2614540;36;20035;-47
2021/09/19 13:34:29;;;;;;;3.08;2.67;;;;;;;17.18;57.70;100988.06;2615714;36;20445;-45
2021/09/19 13:37:07;;;;;;;4.35;2.90;;;;;;;17.17;55.85;100988.94;2615162;36;20649;-45
2021/09/19 13:39:43;;;;;;;2.95;2.60;;;;;;;17.04;55.34;100979.41;2580194;36;2005885;-46
2021/09/19 13:42:16;;;;;;;5.18;2.22;;;;;;;16.69;57.01;100981.81;2615878;36;20319;-44
2021/09/19 13:44:51;;;;;;;8.43;6.25;;;;;;;16.84;55.47;100983.63;2616392;31;20499;-44
2021/09/19 13:47:28;;;;;;;4.60;3.20;;;;;;;16.65;56.70;100980.06;2615660;31;20558;-44
2021/09/19 13:50:02;;;;;;;3.20;2.67;;;;;;;16.75;56.99;100981.88;2615607;31;20054;-46
2021/09/19 13:52:35;;;;;;;3.72;3.10;;;;;;;16.47;56.29;100986.84;2616137;31;20637;-44
2021/09/19 13:55:11;;;;;;;4.10;2.95;;;;;;;16.58;56.17;100986.91;2616447;31;20034;-45
2021/09/19 13:57:44;;;;;;;4.72;3.50;;;;;;;16.86;56.70;100985.34;2615441;36;20035;-43
2021/09/19 14:00:16;;;;;;;3.55;3.25;;;;;;;16.71;57.83;100982.66;2622391;36;20046;-43
2021/09/19 14:02:46;;;;;;;6.80;3.25;;;;;;;16.40;59.39;100982.47;2616530;31;20038;-44
2021/09/19 14:05:20;;;;;;;4.57;2.58;;;;;;;16.48;58.32;100980.81;2615951;36;20513;-46
2021/09/19 14:07:55;;;;;;;3.38;3.08;;;;;;;16.68;58.44;100982.66;2616171;31;20049;-49
2021/09/19 14:10:29;;;;;;;6.88;4.90;;;;;;;16.51;58.34;100983.44;2615434;36;20037;-45
2021/09/19 14:13:07;;;;;;;5.35;2.83;;;;;;;16.36;57.96;100987.63;2615424;31;20203;-45
2021/09/19 14:15:35;;;;;;;3.97;2.80;;;;;;;16.06;58.54;100993.44;2614973;31;20054;-44
2021/09/19 14:18:02;;;;;;;5.88;2.70;;;;;;;16.31;58.34;100995.34;2615458;31;20035;-45
2021/09/19 14:20:31;;;;;;;2.72;2.53;;;;;;;16.22;57.00;100996.16;2616852;31;20030;-46
2021/09/19 14:22:59;;;;;;;3.47;3.10;;;;;;;15.98;57.89;100990.78;2615271;36;20038;-45
2021/09/19 14:25:27;;;;;;;7.65;3.05;;;;;;;15.79;58.59;100998.38;2616963;31;20061;-46
2021/09/19 14:27:56;;;;;;;4.63;2.72;;;;;;;15.89;58.88;100994.16;2617499;31;20030;-45
2021/09/19 14:30:24;;;;;;;5.63;2.80;;;;;;;15.97;59.10;100987.34;2616492;36;20438;-46
2021/09/19 14:32:51;;;;;;;5.30;2.72;;;;;;;15.98;57.96;100994.22;2615832;36;20038;-46
2021/09/19 14:35:18;;;;;;;4.13;2.60;;;;;;;15.75;59.82;100990.59;2615598;36;20034;-47
2021/09/19 14:37:46;;;;;;;3.28;2.80;;;;;;;15.44;60.41;100992.84;2615621;36;20053;-50
2021/09/19 14:40:14;;;;;;;4.22;2.60;;;;;;;15.37;62.77;100990.16;2615937;36;20118;-46
2021/09/19 14:42:42;;;;;;;3.33;2.65;;;;;;;15.38;63.18;100989.31;2616032;36;20049;-44
2021/09/19 14:45:11;;;;;;;3.35;2.42;;;;;;;15.41;64.19;100989.34;2615891;31;20104;-48
2021/09/19 14:47:38;;;;;;;5.70;2.55;;;;;;;15.51;63.09;100976.56;2616826;31;20027;-46
2021/09/19 14:50:07;;;;;;;2.83;2.53;;;;;;;15.58;61.69;100990.41;2615717;36;20664;-47
2021/09/19 14:52:34;;;;;;;4.47;2.67;;;;;;;15.58;63.50;100986.97;2615750;36;20035;-50
2021/09/19 14:55:02;;;;;;;6.93;2.70;;;;;;;15.72;60.31;100988.84;2615603;36;20039;-50
2021/09/19 14:57:32;;;;;;;5.30;2.63;;;;;;;15.74;60.60;100984.56;2615666;36;20031;-44
2021/09/19 15:00:14;;;;;;;3.33;2.13;;;;;;;15.92;59.75;100976.09;2616247;36;20469;-45
2021/09/19 15:02:41;;;;;;;5.25;2.65;;;;;;;15.74;62.11;100981.13;2616183;36;20038;-44
2021/09/19 15:05:10;;;;;;;2.58;2.15;;;;;;;15.50;60.43;100977.41;2616224;31;20027;-46
2021/09/19 15:07:38;;;;;;;4.00;2.67;;;;;;;15.39;64.17;100978.13;2618636;31;20061;-51
2021/09/19 15:10:07;;;;;;;3.47;2.10;;;;;;;15.03;61.54;100979.47;2621331;31;20038;-49
2021/09/19 15:12:36;;;;;;;8.43;2.85;;;;;;;14.96;64.74;100972.50;2619434;31;20585;-49
2021/09/19 15:15:05;;;;;;;3.95;2.33;;;;;;;15.05;64.25;100972.59;2616150;36;20049;-44
2021/09/19 15:17:32;;;;;;;5.57;2.47;;;;;;;15.15;64.59;100968.41;2617755;31;20068;-46
2021/09/19 15:19:59;;;;;;;3.45;2.80;;;;;;;15.08;65.26;100971.78;2619289;31;20030;-47
2021/09/19 15:22:28;;;;;;;3.88;2.70;;;;;;;14.78;65.54;100961.09;2616373;31;20037;-46
2021/09/19 15:24:56;;;;;;;4.45;2.97;;;;;;;14.62;66.62;100968.63;2615930;36;20050;-44
2021/09/19 15:27:24;;;;;;;3.38;2.80;;;;;;;14.54;65.82;100973.66;2616941;31;20031;-46
2021/09/19 15:29:51;;;;;;;3.08;2.40;;;;;;;14.64;66.39;100960.06;2615417;36;20034;-48
2021/09/19 15:32:18;;;;;;;3.78;2.83;;;;;;;14.72;66.11;100970.47;2616509;31;20035;-44